Capitol Logistics 452


KRFD
Chicago/Rockford International Airport
Rockford, Illinois, US
KRIV
March Air Reserve Base
Riverside, California, US

Route Details

Aircraft Information
Primary: Boeing 737-800BCF
Backup: Not Available
Route Data
Distance: 1417nm
Sched. Duration: 3h 50m
Avg. Duration: 3h 51m (+2m)
Times Flown: 8
Recm'd Route: DBQ ALO OBH FQF J10 HBU J128 TBC J236 TRM ARKOE1
Planned Altitude: 36,000ft
Origin Wx: KRFD 310654Z 06007KT 10SM OVC055 04/01 A3013 RMK AO2 SLP207 T00390006 $
Dest. Wx: KRIV 310658Z AUTO 00000KT 10SM CLR 09/06 A3017 RMK AO2 SLP214 T00890060
Notes:

Financial History
Total Freight: 694,072lbs
Average Load: 86,759lbs/flt
Fuel Used: 277,690lbs
Avg. Fuel Used: 34,711lbs/flt
Fuel Expense: $195,311
Avg. Fuel Expense: $24,414
Avg. Fuel Cost: $0.71/lbs
Total Gross Income: $1,037,768
Pilot Pay: $1,542
Total Expenses: $112,495
Total Revenue: $723,170
Average Revenue: $129,721.06